Strona główna
METAR-TAF:

METAR-TAF

Lotnisko :

Eastern Slopes Regional Airport

Fryeburg, Maine, Stany Zjednoczone

Szerokość geograficzna: 43-59-21N, Długość geograficzna: 070-57-01W, wysokość: 137 m

Aktualna obserwacja pogody

Raport powstał 18 minut temu, godzina 19:54 UTC
Wiatr 7 kt od północ
Temperatura -1°C
Wilgotność 43%
Ciśnienie 1015 hPa
Widzialność: 16.1 km
bezchmurnie

METAR: KIZG 251954Z AUTO 01007KT 10SM CLR M01/M12 A2997 RMK AO2 SLP159 T10061122

czas: 15:12 (20:12 UTC)


TAF: brakujący

Obserwacja i prognoza pogody dla ponad 4000 lotnisk (raport METAR i TAF).

Dostępne stacje oznaczono żółtymi i czerwonymi punktami na mapie.

Najedź kursorem aby zobaczyć nazwę stacji.

Kliknij aby zobaczyć obserwacje i prognozy pogody.

Aby zmienić mapę: kliknij na zielony przycisk z czarnym krzyżykiem, aby powiększyć; na zielony przycisk z myślnikiem, aby pomniejszyć; na zielone strzałki, aby przejść do map sąsiednich.


METAR-TAF: